Latest Weather Observations for Giles*

IDW60801

Issued at 2:32 pm WST Saturday 23 March 2019 (issued every 10 minutes, with the page automatically refreshed every 10 minutes)

About weather observations | Map of weather stations | Latest weather observations for WA | Other Formats
Station Details ID: 013017 Name: GILES METEOROLOGICAL OFFICE Lat: -25.03 Lon: 128.30 Height: 598.0 m
Data from the previous 72 hours. | See also: Recent months at Giles*

* Giles observations are collected in the South Australia time zone, which includes daylight saving in the summer period. Therefore, Rain since 9am value is with respect to South Australia local time.

Date/Time
WST
Temp
°C
App
Temp
°C
Dew
Point
°C
Rel
Hum
%
Delta-T
°C
Wind Press
QNH
hPa
Press
MSL
hPa
Rain since
9am
mm
Dir  Spd
km/h
Gust
km/h
Spd
kts
Gust
kts
23/02:00pm 39.1 34.6 -0.1 8 20.4 N 13 20 7 11 1007.8 1003.6 0.0
23/01:30pm 39.6 34.3 -3.7 6 21.3 S 15 28 8 15 1007.7 1003.5 0.0
23/01:00pm 38.6 33.0 -3.3 7 20.7 NNW 17 28 9 15 1008.2 1004.0 0.0
23/12:30pm 38.8 34.6 -1.1 8 20.4 SE 11 15 6 8 1008.6 1004.3 0.0
23/12:00pm 38.4 32.9 -1.9 8 20.3 N 17 26 9 14 1009.1 1004.9 0.0
23/11:30am 37.8 32.8 -1.3 8 19.8 N 15 32 8 17 1009.4 1005.2 0.0
23/11:00am 37.8 34.1 0.2 9 19.5 NNW 9 19 5 10 1009.9 1005.7 0.0
23/10:30am 37.1 33.2 0.9 10 18.9 NW 11 20 6 11 1010.5 1006.3 0.0
23/10:00am 37.5 33.0 -0.3 9 19.4 N 13 20 7 11 1010.6 1006.4 0.0
23/09:30am 35.7 32.2 1.4 11 17.9 SSE 9 15 5 8 1010.9 1006.7 0.0
23/09:00am 33.9 30.4 1.3 12 16.8 SSE 9 13 5 7 1011.1 1006.9 0.0
23/08:30am 32.4 29.0 2.0 14 15.7 SSE 9 13 5 7 1011.2 1007.0 0.0
23/08:00am 30.7 29.7 5.4 20 13.7 CALM 0 0 0 0 1011.1 1006.9 0.0
23/07:30am 28.6 27.6 5.7 23 12.3 CALM 0 0 0 0 1010.9 1006.7 0.0
23/07:00am 26.7 23.8 4.4 24 11.6 SSE 9 13 5 7 1010.7 1006.5 0.0
23/06:30am 25.7 23.0 3.8 24 11.2 SSE 7 13 4 7 1010.5 1006.3 0.0
23/06:00am 24.5 21.2 4.8 28 10.2 SSE 11 13 6 7 1010.2 1005.9 0.0
23/05:30am 22.2 19.0 5.3 33 8.7 SSE 11 13 6 7 1010.2 1005.9 0.0
23/05:00am 24.1 21.3 5.0 29 9.9 SSE 9 13 5 7 1009.9 1005.7 0.0
23/04:30am 24.2 21.5 5.4 29 9.8 SSE 9 11 5 6 1009.7 1005.5 0.0
23/04:00am 24.0 20.8 5.1 29 9.8 SSE 11 11 6 6 1009.5 1005.3 0.0
23/03:30am 23.4 20.2 5.0 30 9.5 SSE 11 11 6 6 1009.7 1005.5 0.0
23/03:00am 23.9 20.6 4.6 28 9.9 SSE 11 13 6 7 1009.7 1005.5 0.0
23/02:30am 24.4 21.1 4.3 27 10.3 SSE 11 13 6 7 1009.9 1005.7 0.0
23/02:00am 25.1 22.2 4.9 27 10.5 SSE 9 11 5 6 1009.9 1005.7 0.0
23/01:30am 25.6 22.3 4.6 26 10.9 SSE 11 13 6 7 1010.2 1005.9 0.0
23/01:00am 26.6 23.3 4.5 24 11.5 SSE 11 13 6 7 1010.8 1006.6 0.0
23/12:30am 27.1 23.4 4.5 23 11.8 SSE 13 17 7 9 1010.9 1006.7 0.0
23/12:00am 27.4 25.6 7.9 29 10.8 SSE 7 11 4 6 1011.1 1006.9 0.0
 
Date/Time
WST
Temp
°C
App
Temp
°C
Dew
Point
°C
Rel
Hum
%
Delta-T
°C
Wind Press
QNH
hPa
Press
MSL
hPa
Rain since
9am
mm
Dir  Spd
km/h
Gust
km/h
Spd
kts
Gust
kts
22/11:30pm 28.6 24.5 4.2 21 12.8 SSE 15 20 8 11 1011.2 1007.0 0.0
22/11:00pm 29.1 25.0 4.5 21 13.0 SSE 15 22 8 12 1011.5 1007.3 0.0
22/10:30pm 29.7 23.8 3.7 19 13.6 SSE 24 35 13 19 1011.5 1007.3 0.0
22/10:00pm 30.1 24.2 3.8 18 13.8 SSE 24 35 13 19 1011.5 1007.3 0.0
22/09:30pm 30.8 24.1 3.9 18 14.2 SSE 28 39 15 21 1011.4 1007.2 0.0
22/09:00pm 31.6 23.9 3.5 17 14.8 SSE 33 44 18 24 1011.0 1006.8 0.0
22/08:51pm 31.8 25.8 3.3 16 15.0 SSE 24 43 13 23 1010.9 1006.7 0.0
22/08:30pm 33.8 31.1 2.7 14 16.4 N 6 7 3 4 1010.4 1006.2 0.0
22/08:00pm 35.1 32.7 4.5 15 16.7 N 6 7 3 4 1010.3 1006.0 0.0
22/07:30pm 35.2 32.6 4.0 14 16.9 N 7 9 4 5 1010.2 1005.9 0.0
22/07:00pm 36.1 33.2 1.2 11 18.2 NNW 6 7 3 4 1009.7 1005.5 0.0
22/06:30pm 35.4 33.1 4.8 15 16.8 NNW 6 6 3 3 1009.6 1005.4 0.0
22/06:00pm 36.9 34.0 1.6 11 18.6 NNW 6 9 3 5 1009.3 1005.1 0.0
22/05:30pm 37.7 34.4 0.4 9 19.3 NW 7 7 4 4 1009.0 1004.8 0.0
22/05:00pm 38.4 35.1 0.1 9 19.9 NW 7 9 4 5 1008.9 1004.7 0.0
22/04:30pm 38.6 34.8 -0.7 8 20.1 NE 9 15 5 8 1008.7 1004.4 0.0
22/04:00pm 39.1 35.0 -0.2 8 20.4 NE 11 20 6 11 1008.6 1004.3 0.0
22/03:30pm 39.6 35.0 -1.0 8 20.9 N 13 22 7 12 1008.6 1004.3 0.0
22/03:00pm 39.6 35.4 -0.6 8 20.8 NNW 11 17 6 9 1008.8 1004.5 0.0
22/02:30pm 40.3 34.1 -3.0 6 21.7 NNW 20 32 11 17 1008.9 1004.7 0.0
22/02:00pm 39.7 34.0 -3.4 6 21.4 NNW 17 28 9 15 1009.0 1004.8 0.0
22/01:30pm 39.1 34.7 0.3 9 20.3 N 13 20 7 11 1009.2 1005.0 0.0
22/01:00pm 39.7 34.3 -1.3 7 21.0 NE 17 24 9 13 1009.5 1005.3 0.0
22/12:30pm 39.0 32.7 -1.0 8 20.5 N 22 39 12 21 1010.2 1005.9 0.0
22/12:00pm 38.9 32.2 -0.8 8 20.4 N 24 39 13 21 1010.6 1006.4 0.0
22/11:30am 39.0 32.3 -1.0 8 20.5 N 24 43 13 23 1011.2 1007.0 0.0
22/11:00am 38.2 29.9 -1.6 8 20.1 N 32 44 17 24 1011.7 1007.5 0.0
22/10:38am 37.8 30.5 0.1 9 19.5 NNE 28 46 15 25 1012.1 1007.9 0.0
22/10:30am 37.3 30.1 0.5 10 19.1 NNE 28 37 15 20 1012.2 1008.0 0.0
22/10:00am 36.9 29.2 -0.2 9 19.0 NNE 30 44 16 24 1012.6 1008.4 0.0
22/09:50am 37.0 29.1 1.0 10 18.8 N 32 50 17 27 1012.6 1008.4 0.0
22/09:30am 35.9 28.1 1.4 11 18.0 NNE 32 46 17 25 1012.7 1008.5 0.0
22/09:00am 35.3 28.3 1.9 12 17.5 NNE 28 46 15 25 1013.2 1009.0 0.0
22/08:30am 34.1 26.4 2.1 13 16.7 NNE 32 44 17 24 1013.4 1009.3 0.0
22/08:00am 33.4 26.1 2.4 14 16.2 NNE 30 41 16 22 1013.1 1008.9 0.0
22/07:30am 32.3 25.8 2.9 15 15.4 NE 26 43 14 23 1013.0 1008.8 0.0
22/07:00am 31.6 26.0 3.5 17 14.8 NE 22 32 12 17 1012.8 1008.6 0.0
22/06:30am 31.2 24.5 3.4 17 14.6 NE 28 43 15 23 1012.5 1008.3 0.0
22/06:11am 31.3 24.1 2.9 16 14.8 NE 30 48 16 26 1012.4 1008.2 0.0
22/06:00am 31.0 23.5 3.3 17 14.5 NE 32 44 17 24 1012.4 1008.2 0.0
22/05:30am 30.7 23.9 3.0 17 14.4 NE 28 43 15 23 1012.4 1008.2 0.0
22/05:00am 30.6 23.4 3.1 17 14.3 NE 30 44 16 24 1011.8 1007.7 0.0
22/04:34am 30.8 23.6 3.2 17 14.4 NE 30 48 16 26 1011.6 1007.4 0.0
22/04:30am 31.0 23.4 2.9 16 14.6 NE 32 48 17 26 1011.5 1007.3 0.0
22/04:00am 31.2 24.3 2.7 16 14.8 NE 28 48 15 26 1011.4 1007.2 0.0
22/03:51am 31.3 24.4 2.5 16 14.9 NE 28 46 15 25 1011.3 1007.1 0.0
22/03:30am 31.4 24.1 2.7 16 14.9 NE 30 46 16 25 1011.1 1006.9 0.0
22/03:02am 31.6 24.6 2.1 15 15.2 NE 28 46 15 25 1010.8 1006.6 0.0
22/03:00am 31.0 24.9 3.0 17 14.6 NE 24 37 13 20 1010.8 1006.6 0.0
22/02:30am 31.2 24.7 2.7 16 14.8 ENE 26 41 14 22 1010.7 1006.5 0.0
22/02:00am 31.7 24.8 2.7 16 15.1 NE 28 43 15 23 1010.7 1006.5 0.0
22/01:48am 32.0 24.7 2.6 15 15.3 NE 30 48 16 26 1010.7 1006.5 0.0
22/01:30am 32.3 25.0 2.6 15 15.5 NE 30 46 16 25 1010.8 1006.6 0.0
22/01:24am 32.3 24.7 2.6 15 15.5 NE 32 50 17 27 1010.9 1006.7 0.0
22/01:00am 32.4 25.1 2.4 15 15.6 ENE 30 41 16 22 1011.0 1006.8 0.0
22/12:30am 32.2 26.5 2.7 15 15.4 ENE 22 33 12 18 1011.4 1007.2 0.0
22/12:00am 32.4 26.2 2.4 15 15.6 ENE 24 39 13 21 1011.5 1007.3 0.0
 
Date/Time
WST
Temp
°C
App
Temp
°C
Dew
Point
°C
Rel
Hum
%
Delta-T
°C
Wind Press
QNH
hPa
Press
MSL
hPa
Rain since
9am
mm
Dir  Spd
km/h
Gust
km/h
Spd
kts
Gust
kts
21/11:30pm 32.7 26.9 2.3 14 15.8 ENE 22 30 12 16 1011.7 1007.5 0.0
21/11:00pm 33.2 27.3 2.0 14 16.2 NE 22 32 12 17 1011.7 1007.5 0.0
21/10:30pm 33.1 28.2 1.7 13 16.2 ENE 17 24 9 13 1011.8 1007.7 0.0
21/10:00pm 32.9 27.9 1.2 13 16.2 ENE 17 24 9 13 1012.2 1008.0 0.0
21/09:30pm 31.4 27.1 1.2 14 15.3 ENE 13 17 7 9 1012.4 1008.2 0.0
21/09:00pm 32.4 28.1 1.2 13 15.9 ENE 13 20 7 11 1012.4 1008.2 0.0
21/08:30pm 32.8 28.1 1.0 13 16.2 ENE 15 20 8 11 1012.2 1008.0 0.0
21/08:00pm 33.3 28.6 1.0 13 16.5 ENE 15 19 8 10 1012.1 1007.9 0.0
21/07:30pm 33.8 29.1 0.6 12 16.9 ENE 15 17 8 9 1012.0 1007.8 0.0
21/07:00pm 33.7 29.9 1.6 13 16.6 ENE 11 13 6 7 1011.7 1007.5 0.0
21/06:30pm 34.5 30.6 1.2 12 17.2 ENE 11 13 6 7 1011.5 1007.3 0.0
21/06:00pm 35.3 32.0 2.4 12 17.4 ENE 9 11 5 6 1011.2 1007.0 0.0
21/05:30pm 36.5 33.3 3.0 12 18.0 ENE 9 15 5 8 1010.8 1006.6 0.0
21/05:00pm 38.2 34.0 -0.6 9 19.9 ESE 11 19 6 10 1010.5 1006.3 0.0
21/04:30pm 38.3 35.1 0.7 9 19.7 NE 7 13 4 7 1010.6 1006.4 0.0
21/04:00pm 39.3 35.3 -2.1 7 20.9 ENE 9 20 5 11 1010.6 1006.4 0.0
21/03:30pm 39.5 35.0 0.0 8 20.6 E 13 26 7 14 1010.5 1006.3 0.0
21/03:00pm 39.1 34.5 -1.2 8 20.6 E 13 20 7 11 1010.7 1006.5 0.0
21/02:30pm 38.4 33.3 -1.9 8 20.3 E 15 24 8 13 1010.7 1006.5 0.0
21/02:00pm 39.1 33.7 -1.7 7 20.7 ESE 17 24 9 13 1010.9 1006.7 0.0
21/01:30pm 40.2 35.5 -1.8 7 21.4 NE 13 30 7 16 1011.4 1007.2 0.0
21/01:00pm 39.0 33.3 -1.1 8 20.5 NE 19 30 10 16 1011.8 1007.7 0.0
21/12:30pm 39.0 34.3 1.2 9 20.0 N 15 24 8 13 1012.4 1008.2 0.0
21/12:00pm 39.7 34.1 0.1 8 20.7 NNE 19 32 10 17 1012.7 1008.5 0.0
21/11:30am 38.1 32.7 2.2 10 19.2 NE 20 33 11 18 1013.2 1009.0 0.0
21/11:00am 37.5 31.6 1.8 11 18.9 NE 22 39 12 21 1013.5 1009.4 0.0
21/10:30am 37.3 31.1 2.1 11 18.7 NNE 24 43 13 23 1013.9 1009.7 0.0
21/10:00am 35.8 28.9 2.3 12 17.7 NE 28 39 15 21 1014.3 1010.1 0.0
21/09:30am 35.1 28.3 3.3 13 17.0 NNE 28 43 15 23 1014.6 1010.4 0.0
21/09:00am 35.2 28.4 3.2 13 17.1 NE 28 39 15 21 1014.8 1010.6 0.0
21/08:30am 34.4 26.9 3.2 14 16.6 NE 32 46 17 25 1014.9 1010.8 0.0
21/08:00am 33.6 26.0 2.8 14 16.2 NE 32 56 17 30 1014.7 1010.5 0.0
21/07:30am 32.8 25.6 3.2 15 15.6 NE 30 48 16 26 1014.5 1010.3 0.0
21/07:29am 32.8 25.6 3.2 15 15.6 NE 30 48 16 26 1014.5 1010.3 0.0
21/07:00am 32.2 25.0 3.0 15 15.3 NE 30 43 16 23 1014.2 1010.0 0.0
21/06:42am 31.6 24.8 3.1 16 14.9 NE 28 46 15 25 1014.1 1009.9 0.0
21/06:30am 31.3 24.9 3.2 17 14.7 NE 26 43 14 23 1014.0 1009.8 0.0
21/06:19am 31.0 24.2 2.9 16 14.6 NE 28 46 15 25 1013.6 1009.5 0.0
21/06:00am 30.2 24.3 3.7 18 13.9 ENE 24 39 13 21 1013.3 1009.1 0.0
21/05:30am 29.7 23.6 2.6 17 13.9 ENE 24 43 13 23 1013.1 1008.9 0.0
21/05:00am 30.2 24.0 2.3 17 14.3 ENE 24 35 13 19 1012.8 1008.6 0.0
21/04:30am 29.9 24.7 2.3 17 14.1 ENE 19 28 10 15 1012.7 1008.5 0.0
21/04:00am 30.2 24.7 1.9 16 14.4 ENE 20 33 11 18 1012.4 1008.2 0.0
21/03:30am 30.0 25.1 2.2 17 14.2 ENE 17 24 9 13 1012.4 1008.2 0.0
21/03:00am 30.4 24.8 1.2 15 14.7 ENE 20 28 11 15 1012.3 1008.1 0.0
21/02:30am 30.5 24.9 1.4 15 14.7 ENE 20 26 11 14 1012.3 1008.1 0.0
21/02:00am 30.8 25.2 1.3 15 14.9 ENE 20 30 11 16 1012.4 1008.2 0.0
21/01:30am 31.0 25.6 1.0 14 15.1 ENE 19 24 10 13 1012.4 1008.2 0.0
21/01:00am 31.7 25.6 0.7 13 15.6 ENE 22 30 12 16 1012.5 1008.3 0.0
21/12:30am 32.1 26.6 0.9 13 15.8 ENE 19 26 10 14 1012.6 1008.4 0.0
21/12:00am 32.2 26.5 0.3 13 16.0 ENE 20 28 11 15 1012.8 1008.6 0.0
 
Date/Time
WST
Temp
°C
App
Temp
°C
Dew
Point
°C
Rel
Hum
%
Delta-T
°C
Wind Press
QNH
hPa
Press
MSL
hPa
Rain since
9am
mm
Dir  Spd
km/h
Gust
km/h
Spd
kts
Gust
kts
20/11:30pm 31.9 26.8 0.8 13 15.7 ENE 17 24 9 13 1013.1 1008.9 0.0
20/11:00pm 32.0 26.9 0.6 13 15.8 ENE 17 20 9 11 1013.4 1009.3 0.0
20/10:30pm 30.6 25.8 0.4 14 15.0 ENE 15 17 8 9 1013.6 1009.5 0.0
20/10:00pm 32.0 26.8 0.2 13 15.9 ENE 17 24 9 13 1013.9 1009.7 0.0
20/09:30pm 32.2 27.0 -0.2 12 16.1 E 17 20 9 11 1014.1 1009.9 0.0
20/09:00pm 32.3 27.5 0.1 12 16.1 ESE 15 19 8 10 1014.2 1010.0 0.0
20/08:30pm 32.3 27.9 0.5 13 16.0 ESE 13 17 7 9 1014.1 1009.9 0.0
20/08:00pm 32.6 28.2 0.4 13 16.2 ESE 13 17 7 9 1013.9 1009.7 0.0
20/07:30pm 33.1 28.3 0.0 12 16.6 ESE 15 19 8 10 1013.6 1009.5 0.0
20/07:00pm 33.0 28.6 0.6 12 16.4 ESE 13 15 7 8 1013.3 1009.1 0.0
20/06:30pm 33.0 29.1 1.0 13 16.3 ESE 11 13 6 7 1013.0 1008.8 0.0
20/06:00pm 34.5 30.3 -1.1 10 17.7 ESE 11 15 6 8 1012.7 1008.5 0.0
20/05:30pm 36.6 31.0 -3.2 8 19.4 ESE 17 24 9 13 1012.3 1008.1 0.0
20/05:00pm 37.4 32.8 -1.1 9 19.5 E 13 20 7 11 1012.1 1007.9 0.0
20/04:30pm 37.9 33.3 -1.0 8 19.8 E 13 28 7 15 1012.0 1007.8 0.0
20/04:00pm 38.2 32.7 -2.1 8 20.2 E 17 28 9 15 1011.8 1007.7 0.0
20/03:30pm 38.5 33.9 -1.1 8 20.2 E 13 22 7 12 1011.6 1007.4 0.0
20/03:00pm 38.3 33.7 -1.3 8 20.1 ESE 13 24 7 13 1011.6 1007.4 0.0
20/02:30pm 38.4 35.2 0.9 9 19.7 NNE 7 15 4 8 1011.8 1007.7 0.0
20/02:00pm 38.3 32.5 -1.8 8 20.2 ENE 19 28 10 15 1012.1 1007.9 0.0
20/01:30pm 37.8 32.3 -1.9 8 19.9 SE 17 28 9 15 1012.5 1008.3 0.0
20/01:00pm 38.6 33.8 -2.4 7 20.5 NNE 13 28 7 15 1012.7 1008.5 0.0
20/12:30pm 37.9 33.1 -0.1 9 19.6 NE 15 24 8 13 1013.3 1009.1 0.0

Other formats

Comma delimited format used in spreadsheet applications
http://www.bom.gov.au/fwo/IDW60801/IDW60801.94461.axf

JavaScript Object Notation format (JSON) in row-major order
http://www.bom.gov.au/fwo/IDW60801/IDW60801.94461.json

Data quality

Most of these data are generated automatically and are frequently updated. Quality checks on data are not normally performed. It is possible for incorrect values to appear. Refer to information at About Latest Weather Observations and please check the disclaimer before using these data.